Accueil
METAR-TAF:

METAR-TAF

Aéroports :

Aérodrome de Tuléar

Tuléar, Madagascar

latitude: 23-23S, longitude: 043-44E, altitude: 8 m

METAR: absent

Heure: 08:13 (05:13 UTC)

Prévision

Le bulletin a été fait il y a 6 heures et 13 minutes, à 23:00 UTC
Prévision valable du 07 à 00 UTC au 07 à 24 UTC
Vent 10 kt de est/sud-est
Visibilité 10 km ou plus
Quelques nuages à une hauteur de 2000 ft
Evoluant progressivement
du 07 à 10 UTC au 07 à 12 UTC
Vent 10 kt de ouest/sud-ouest
Evoluant progressivement
du 07 à 18 UTC au 07 à 20 UTC
Vent 8 kt de est/sud-est

TAF: FMST 062300Z 0700/0724 12010KT 9999 FEW020 BECMG 0710/0712 24010KT BECMG 0718/0720 12008KT

Observations et prévisions météorologiques de plus de 4000 aéroports (messages METAR et TAF).

Les stations disponibles sont représentées par des disques jaunes et rouges sur la carte.

Passer la souris dessus pour voir le nom de la station.

Cliquer dessus pour voir les observations et prévisions météorologiques.

Pour changer de carte: cliquez sur les boutons verts avec une croix noire pour zoomer, sur le bouton vert avec un tiret pour effectuer un zoom arrière, ou sur les flèches vertes pour les cartes adjacentes.


METAR-TAF: